Time;durP1;ratioP1;P1;durP2;ratioP2;P2;SDS_P1;SDS_P2;PMS_P1;PMS_P2;Temp;Humidity;BMP_temperature;BMP_pressure;BME280_temperature;BME280_humidity;BME280_pressure;Samples;Min_cycle;Max_cycle;Signal;HPM_P1;HPM_P2
2021/06/11 00:01:56;;;;;;;3.47;3.17;;;;;;;;;;5077791;28;20199;-78
2021/06/11 00:04:22;;;;;;;2.63;2.43;;;;;;;;;;5078307;28;20180;-78
2021/06/11 00:06:48;;;;;;;2.63;2.42;;;;;;;;;;5080366;28;20435;-79
2021/06/11 00:09:14;;;;;;;2.47;2.27;;;;;;;;;;5080665;28;20204;-79
2021/06/11 00:11:50;;;;;;;3.10;2.80;;;;;;;;;;5081775;28;20442;-79
2021/06/11 00:14:16;;;;;;;3.00;2.70;;;;;;;;;;5078444;28;20184;-78
2021/06/11 00:16:42;;;;;;;3.20;2.60;;;;;;;;;;5085060;28;20185;-78
2021/06/11 00:19:08;;;;;;;3.05;2.85;;;;;;;;;;5083451;28;20200;-78
2021/06/11 00:21:34;;;;;;;3.30;3.00;;;;;;;;;;5085382;28;20638;-78
2021/06/11 00:24:00;;;;;;;2.90;2.35;;;;;;;;;;5085269;28;20455;-78
2021/06/11 00:26:26;;;;;;;3.70;2.87;;;;;;;;;;5094659;28;20176;-78
2021/06/11 00:28:52;;;;;;;3.00;2.80;;;;;;;;;;5083426;28;20443;-78
2021/06/11 00:31:18;;;;;;;3.03;2.72;;;;;;;;;;5080462;28;20427;-77
2021/06/11 00:33:44;;;;;;;3.50;2.88;;;;;;;;;;5072486;28;20212;-78
2021/06/11 00:36:10;;;;;;;2.30;2.10;;;;;;;;;;5085344;28;20172;-78
2021/06/11 00:38:36;;;;;;;3.30;2.87;;;;;;;;;;5085632;28;20192;-77
2021/06/11 00:41:02;;;;;;;2.20;2.00;;;;;;;;;;5083035;28;20465;-78
2021/06/11 00:43:28;;;;;;;3.38;3.00;;;;;;;;;;5081123;28;20454;-78
2021/06/11 00:45:54;;;;;;;8.73;2.73;;;;;;;;;;5084191;28;20181;-77
2021/06/11 00:48:20;;;;;;;2.80;2.60;;;;;;;;;;5083168;28;20483;-77
2021/06/11 00:50:47;;;;;;;3.40;2.88;;;;;;;;;;5086126;28;20426;-77
2021/06/11 00:53:13;;;;;;;3.30;3.00;;;;;;;;;;5083107;28;20215;-77
2021/06/11 00:55:45;;;;;;;3.03;2.72;;;;;;;;;;5083695;28;20192;-77
2021/06/11 00:58:15;;;;;;;3.30;3.00;;;;;;;;;;5084196;28;20180;-77
2021/06/11 01:00:42;;;;;;;3.17;2.60;;;;;;;;;;5082526;28;20185;-77
2021/06/11 01:03:08;;;;;;;2.90;2.70;;;;;;;;;;5083721;28;20180;-77
2021/06/11 01:05:35;;;;;;;3.03;2.75;;;;;;;;;;5083810;28;20184;-77
2021/06/11 01:08:01;;;;;;;2.88;2.63;;;;;;;;;;5083089;28;20189;-77
2021/06/11 01:10:27;;;;;;;5.07;2.65;;;;;;;;;;5084347;28;20180;-77
2021/06/11 01:12:55;;;;;;;3.17;2.72;;;;;;;;;;5083475;28;20232;-77
2021/06/11 01:15:22;;;;;;;4.30;3.13;;;;;;;;;;5082093;28;20192;-77
2021/06/11 01:17:49;;;;;;;4.82;3.05;;;;;;;;;;5086515;28;20176;-77
2021/06/11 01:20:15;;;;;;;3.10;2.80;;;;;;;;;;5076780;28;20240;-77
2021/06/11 01:22:44;;;;;;;3.28;2.97;;;;;;;;;;5086982;28;20276;-77
2021/06/11 01:25:11;;;;;;;4.30;3.63;;;;;;;;;;5083347;28;20188;-77
2021/06/11 01:27:38;;;;;;;4.75;4.25;;;;;;;;;;5079930;28;21050;-77
2021/06/11 01:30:09;;;;;;;3.40;3.05;;;;;;;;;;5082901;28;20176;-77
2021/06/11 01:32:36;;;;;;;4.20;3.80;;;;;;;;;;5081515;28;20200;-77
2021/06/11 01:35:07;;;;;;;4.43;3.30;;;;;;;;;;5083550;28;20185;-77
2021/06/11 01:37:34;;;;;;;6.68;4.05;;;;;;;;;;5080811;28;20410;-77
2021/06/11 01:40:04;;;;;;;7.68;3.45;;;;;;;;;;5082847;28;20176;-77
2021/06/11 01:42:35;;;;;;;3.80;3.38;;;;;;;;;;5081182;28;20184;-77
2021/06/11 01:45:06;;;;;;;4.30;3.30;;;;;;;;;;5082484;28;20217;-77
2021/06/11 01:47:32;;;;;;;3.97;3.60;;;;;;;;;;5085053;28;20208;-77
2021/06/11 01:49:58;;;;;;;4.15;3.85;;;;;;;;;;5080669;28;20213;-77
2021/06/11 01:52:26;;;;;;;3.50;3.08;;;;;;;;;;5081580;28;20230;-77
2021/06/11 01:54:52;;;;;;;5.93;3.03;;;;;;;;;;5081059;28;20204;-77
2021/06/11 01:57:19;;;;;;;4.55;4.10;;;;;;;;;;5082613;28;20204;-77
2021/06/11 01:59:46;;;;;;;4.20;3.80;;;;;;;;;;5093991;28;20181;-77
2021/06/11 02:02:12;;;;;;;3.70;3.40;;;;;;;;;;5080279;28;20549;-77
2021/06/11 02:04:38;;;;;;;3.55;3.05;;;;;;;;;;5080056;28;20189;-77
2021/06/11 02:07:08;;;;;;;3.70;3.30;;;;;;;;;;5080144;28;20216;-77
2021/06/11 02:09:34;;;;;;;4.43;3.75;;;;;;;;;;5082369;28;20180;-77
2021/06/11 02:12:00;;;;;;;3.88;3.58;;;;;;;;;;5083371;28;20197;-77
2021/06/11 02:14:27;;;;;;;3.70;3.35;;;;;;;;;;5082179;28;20176;-77
2021/06/11 02:16:54;;;;;;;3.42;3.08;;;;;;;;;;5083722;28;20191;-77
2021/06/11 02:19:21;;;;;;;3.88;3.03;;;;;;;;;;5079983;28;20240;-77
2021/06/11 02:21:47;;;;;;;4.63;3.58;;;;;;;;;;5081302;28;20661;-77
2021/06/11 02:24:13;;;;;;;4.18;3.28;;;;;;;;;;5082977;28;20341;-77
2021/06/11 02:26:41;;;;;;;4.38;3.50;;;;;;;;;;5083639;28;20245;-77
2021/06/11 02:29:07;;;;;;;4.53;2.90;;;;;;;;;;5081136;28;20204;-77
2021/06/11 02:31:34;;;;;;;4.68;3.10;;;;;;;;;;5080736;28;20184;-77
2021/06/11 02:34:00;;;;;;;5.00;3.33;;;;;;;;;;5081711;28;20180;-77
2021/06/11 02:36:27;;;;;;;3.30;3.00;;;;;;;;;;5080729;28;20192;-77
2021/06/11 02:38:53;;;;;;;5.47;3.20;;;;;;;;;;5084260;28;20172;-77
2021/06/11 02:41:21;;;;;;;4.77;4.27;;;;;;;;;;5079156;28;20184;-76
2021/06/11 02:43:48;;;;;;;2.95;2.65;;;;;;;;;;5080531;28;20462;-77
2021/06/11 02:46:14;;;;;;;3.20;2.90;;;;;;;;;;5079472;28;20228;-77
2021/06/11 02:48:50;;;;;;;2.60;2.40;;;;;;;;;;5081646;28;20184;-77
2021/06/11 02:51:33;;;;;;;5.00;3.05;;;;;;;;;;5081718;28;20490;-77
2021/06/11 02:54:01;;;;;;;5.03;3.10;;;;;;;;;;5080263;28;20184;-77
2021/06/11 02:56:48;;;;;;;3.78;2.85;;;;;;;;;;5081964;28;20236;-77
2021/06/11 02:59:33;;;;;;;2.70;2.50;;;;;;;;;;5079545;28;20199;-77
2021/06/11 03:02:04;;;;;;;3.17;2.92;;;;;;;;;;5081669;28;20196;-77
2021/06/11 03:04:30;;;;;;;3.55;3.25;;;;;;;;;;5079497;28;20210;-77
2021/06/11 03:06:58;;;;;;;3.10;2.55;;;;;;;;;;5082431;28;20192;-77
2021/06/11 03:09:26;;;;;;;2.95;2.65;;;;;;;;;;5076945;28;20184;-77
2021/06/11 03:11:54;;;;;;;3.30;2.78;;;;;;;;;;5079585;28;20199;-77
2021/06/11 03:14:20;;;;;;;3.90;2.70;;;;;;;;;;5075963;28;20184;-76
2021/06/11 03:16:51;;;;;;;4.03;3.65;;;;;;;;;;5087260;28;20210;-77
2021/06/11 03:19:18;;;;;;;3.42;3.00;;;;;;;;;;5082067;28;20186;-77
2021/06/11 03:21:54;;;;;;;3.55;2.65;;;;;;;;;;5081267;28;20271;-77
2021/06/11 03:24:29;;;;;;;5.03;3.17;;;;;;;;;;5079846;28;20186;-77
2021/06/11 03:27:05;;;;;;;3.05;2.75;;;;;;;;;;5080780;28;20571;-76
2021/06/11 03:29:40;;;;;;;2.67;2.47;;;;;;;;;;5082950;28;20539;-76
2021/06/11 03:32:07;;;;;;;3.50;3.20;;;;;;;;;;5080012;28;20199;-77
2021/06/11 03:34:35;;;;;;;3.45;2.72;;;;;;;;;;5079307;28;20552;-77
2021/06/11 03:37:04;;;;;;;5.13;3.88;;;;;;;;;;5087830;28;20275;-77
2021/06/11 03:39:32;;;;;;;2.97;2.78;;;;;;;;;;5079206;28;20207;-77
2021/06/11 03:41:58;;;;;;;2.83;2.53;;;;;;;;;;5083502;28;20173;-77
2021/06/11 03:44:26;;;;;;;3.08;2.83;;;;;;;;;;5095727;28;20176;-77
2021/06/11 03:46:53;;;;;;;2.80;2.58;;;;;;;;;;5079987;28;20224;-77
2021/06/11 03:49:20;;;;;;;3.13;2.70;;;;;;;;;;5078748;28;20184;-76
2021/06/11 03:51:46;;;;;;;3.90;2.63;;;;;;;;;;5080157;28;20184;-76
2021/06/11 03:54:14;;;;;;;2.45;2.25;;;;;;;;;;5080973;28;20180;-77
2021/06/11 03:56:40;;;;;;;5.30;3.30;;;;;;;;;;5082623;28;20312;-76
2021/06/11 03:59:11;;;;;;;3.65;2.45;;;;;;;;;;5078340;28;20188;-76
2021/06/11 04:01:41;;;;;;;3.38;2.85;;;;;;;;;;5079574;28;20239;-76
2021/06/11 04:04:07;;;;;;;3.78;3.15;;;;;;;;;;5078867;28;20183;-76
2021/06/11 04:06:37;;;;;;;3.80;2.67;;;;;;;;;;5070238;28;20200;-76
2021/06/11 04:09:10;;;;;;;2.85;2.33;;;;;;;;;;5081859;28;20238;-76
2021/06/11 04:11:38;;;;;;;5.30;2.70;;;;;;;;;;5080527;28;20180;-77
2021/06/11 04:14:04;;;;;;;2.97;2.67;;;;;;;;;;5079296;28;20191;-76
2021/06/11 04:16:34;;;;;;;3.00;2.80;;;;;;;;;;5079764;28;20657;-76
2021/06/11 04:19:01;;;;;;;3.90;2.50;;;;;;;;;;5081146;28;20180;-76
2021/06/11 04:21:29;;;;;;;3.17;2.70;;;;;;;;;;5079602;28;20180;-76
2021/06/11 04:23:57;;;;;;;3.05;2.75;;;;;;;;;;5082657;28;20208;-77
2021/06/11 04:26:26;;;;;;;4.65;2.65;;;;;;;;;;5092724;28;20187;-76
2021/06/11 04:28:53;;;;;;;3.03;2.83;;;;;;;;;;5078313;28;20185;-76
2021/06/11 04:31:19;;;;;;;3.92;2.50;;;;;;;;;;5078486;28;20189;-76
2021/06/11 04:33:45;;;;;;;2.40;2.20;;;;;;;;;;5079124;28;20205;-76
2021/06/11 04:36:11;;;;;;;3.58;3.25;;;;;;;;;;5081146;28;20168;-76
2021/06/11 04:38:57;;;;;;;2.60;2.40;;;;;;;;;;5089814;28;20818;-76
2021/06/11 04:41:24;;;;;;;2.70;2.30;;;;;;;;;;5080278;28;20399;-76
2021/06/11 04:43:50;;;;;;;2.30;2.10;;;;;;;;;;5080268;28;20196;-76
2021/06/11 04:46:16;;;;;;;2.20;2.10;;;;;;;;;;5078108;28;20216;-76
2021/06/11 04:48:42;;;;;;;2.05;1.95;;;;;;;;;;5079604;28;20661;-76
2021/06/11 04:51:08;;;;;;;4.15;2.25;;;;;;;;;;5081000;28;20702;-76
2021/06/11 04:53:34;;;;;;;4.75;2.30;;;;;;;;;;5080305;28;20205;-76
2021/06/11 04:56:00;;;;;;;2.22;2.03;;;;;;;;;;5078865;28;20202;-76
2021/06/11 04:58:28;;;;;;;2.72;2.45;;;;;;;;;;5078772;28;20260;-76
2021/06/11 05:00:54;;;;;;;3.63;2.30;;;;;;;;;;5081154;28;20173;-76
2021/06/11 05:03:20;;;;;;;2.90;2.70;;;;;;;;;;5083201;28;20234;-76
2021/06/11 05:05:46;;;;;;;3.38;2.40;;;;;;;;;;5085107;28;20184;-76
2021/06/11 05:08:12;;;;;;;2.20;2.00;;;;;;;;;;5080730;28;20183;-76
2021/06/11 05:10:40;;;;;;;3.10;2.80;;;;;;;;;;5082840;28;20180;-76
2021/06/11 05:13:06;;;;;;;2.78;2.58;;;;;;;;;;5082069;28;20226;-76
2021/06/11 05:15:32;;;;;;;3.05;2.25;;;;;;;;;;5081952;28;20177;-76
2021/06/11 05:18:05;;;;;;;4.25;2.20;;;;;;;;;;5083875;28;20176;-76
2021/06/11 05:20:31;;;;;;;3.25;2.58;;;;;;;;;;5098405;28;20179;-76
2021/06/11 05:22:57;;;;;;;3.20;2.72;;;;;;;;;;5078591;28;20213;-76
2021/06/11 05:25:23;;;;;;;3.63;2.50;;;;;;;;;;5081939;28;20188;-76
2021/06/11 05:27:49;;;;;;;2.72;2.50;;;;;;;;;;5082119;28;20180;-76
2021/06/11 05:30:17;;;;;;;2.85;2.63;;;;;;;;;;5083891;28;20879;-76
2021/06/11 05:32:43;;;;;;;3.40;3.10;;;;;;;;;;5094837;28;20787;-78
2021/06/11 05:35:10;;;;;;;4.50;3.08;;;;;;;;;;5079732;28;20186;-77
2021/06/11 05:37:36;;;;;;;4.63;2.40;;;;;;;;;;5082164;28;20180;-76
2021/06/11 05:40:02;;;;;;;3.00;2.70;;;;;;;;;;5084075;28;20182;-77
2021/06/11 05:42:28;;;;;;;2.83;2.40;;;;;;;;;;5080762;28;20442;-78
2021/06/11 05:44:53;;;;;;;5.23;3.10;;;;;;;;;;5085767;28;20422;-77
2021/06/11 05:47:19;;;;;;;3.30;2.67;;;;;;;;;;5080977;28;20473;-77
2021/06/11 05:49:45;;;;;;;4.10;3.35;;;;;;;;;;5083385;28;20487;-78
2021/06/11 05:52:11;;;;;;;4.03;3.10;;;;;;;;;;5081956;28;20212;-77
2021/06/11 05:54:37;;;;;;;3.20;2.80;;;;;;;;;;5080994;28;20485;-76
2021/06/11 05:57:04;;;;;;;3.13;2.83;;;;;;;;;;5083025;28;20650;-77
2021/06/11 05:59:30;;;;;;;4.85;4.40;;;;;;;;;;5083033;28;20420;-77
2021/06/11 06:01:56;;;;;;;4.45;3.88;;;;;;;;;;5081760;28;20263;-76
2021/06/11 06:04:22;;;;;;;4.55;3.63;;;;;;;;;;5080783;28;20211;-76
2021/06/11 06:06:48;;;;;;;5.93;4.00;;;;;;;;;;5083351;28;20176;-77
2021/06/11 06:09:14;;;;;;;8.17;3.67;;;;;;;;;;5081926;28;20432;-77
2021/06/11 06:11:39;;;;;;;3.50;3.17;;;;;;;;;;5083898;28;20448;-76
2021/06/11 06:14:06;;;;;;;3.10;2.77;;;;;;;;;;5081020;28;20460;-77
2021/06/11 06:16:32;;;;;;;3.80;2.88;;;;;;;;;;5081235;28;20461;-76
2021/06/11 06:18:58;;;;;;;3.60;3.30;;;;;;;;;;5081682;28;20176;-76
2021/06/11 06:21:25;;;;;;;4.10;2.85;;;;;;;;;;5092415;28;20209;-77
2021/06/11 06:23:51;;;;;;;3.35;2.95;;;;;;;;;;5084412;28;20198;-77
2021/06/11 06:26:17;;;;;;;4.32;2.95;;;;;;;;;;5082710;28;20251;-76
2021/06/11 06:28:43;;;;;;;5.50;2.80;;;;;;;;;;5080532;28;20193;-77
2021/06/11 06:31:09;;;;;;;2.83;2.53;;;;;;;;;;5081264;28;20185;-77
2021/06/11 06:33:35;;;;;;;4.35;3.10;;;;;;;;;;5080470;28;20467;-76
2021/06/11 06:36:01;;;;;;;3.17;2.97;;;;;;;;;;5080877;28;20256;-76
2021/06/11 06:38:27;;;;;;;3.13;2.60;;;;;;;;;;5078479;28;20507;-75
2021/06/11 06:40:59;;;;;;;2.50;2.30;;;;;;;;;;5080175;28;20436;-75
2021/06/11 06:43:25;;;;;;;3.17;2.75;;;;;;;;;;5075297;28;20195;-76
2021/06/11 06:45:51;;;;;;;3.37;2.20;;;;;;;;;;5076979;28;20225;-76
2021/06/11 06:48:17;;;;;;;2.40;2.20;;;;;;;;;;5081718;28;20453;-75
2021/06/11 06:50:43;;;;;;;3.22;2.65;;;;;;;;;;5081898;28;20175;-75
2021/06/11 06:53:10;;;;;;;3.63;2.83;;;;;;;;;;5078123;28;20190;-76
2021/06/11 06:55:38;;;;;;;3.00;2.70;;;;;;;;;;5080556;28;20441;-76
2021/06/11 06:58:04;;;;;;;3.55;2.60;;;;;;;;;;5073859;28;20178;-75
2021/06/11 07:00:30;;;;;;;5.47;2.50;;;;;;;;;;5078763;28;20182;-76
2021/06/11 07:02:56;;;;;;;4.30;3.15;;;;;;;;;;5082315;28;20182;-76
2021/06/11 07:05:22;;;;;;;3.70;2.63;;;;;;;;;;5076621;28;20195;-76
2021/06/11 07:07:48;;;;;;;2.63;2.42;;;;;;;;;;5080703;28;20441;-76
2021/06/11 07:10:14;;;;;;;3.47;2.60;;;;;;;;;;5079227;28;20187;-76
2021/06/11 07:12:42;;;;;;;3.00;2.55;;;;;;;;;;5079776;28;20239;-76
2021/06/11 07:15:11;;;;;;;3.20;2.47;;;;;;;;;;5080963;28;20171;-77
2021/06/11 07:17:38;;;;;;;2.65;2.10;;;;;;;;;;5082543;28;20178;-76
2021/06/11 07:20:05;;;;;;;2.58;1.70;;;;;;;;;;5080407;28;20239;-76
2021/06/11 07:22:31;;;;;;;2.38;1.88;;;;;;;;;;5081641;28;20229;-76
2021/06/11 07:24:57;;;;;;;2.80;2.43;;;;;;;;;;5079649;28;20192;-77
2021/06/11 07:27:25;;;;;;;3.42;2.03;;;;;;;;;;5079038;28;20466;-77
2021/06/11 07:29:51;;;;;;;4.00;2.50;;;;;;;;;;5084117;28;20682;-76
2021/06/11 07:32:17;;;;;;;2.27;1.90;;;;;;;;;;5080722;28;20207;-76
2021/06/11 07:34:44;;;;;;;4.15;2.13;;;;;;;;;;5079746;28;20465;-76
2021/06/11 07:37:10;;;;;;;2.28;2.10;;;;;;;;;;5080070;28;20179;-76
2021/06/11 07:39:36;;;;;;;2.20;2.00;;;;;;;;;;5080193;28;20173;-76
2021/06/11 07:42:02;;;;;;;2.90;2.30;;;;;;;;;;5079202;28;20211;-76
2021/06/11 07:44:29;;;;;;;3.75;2.33;;;;;;;;;;5094178;28;20410;-75
2021/06/11 07:46:55;;;;;;;2.70;1.60;;;;;;;;;;5080431;28;20688;-75
2021/06/11 07:49:21;;;;;;;4.22;1.75;;;;;;;;;;5080958;28;20510;-76
2021/06/11 07:51:47;;;;;;;1.60;1.50;;;;;;;;;;5078182;28;20324;-76
2021/06/11 07:54:13;;;;;;;6.37;2.57;;;;;;;;;;5082252;28;20453;-76
2021/06/11 07:56:39;;;;;;;4.27;1.77;;;;;;;;;;5073452;28;20956;-75
2021/06/11 07:59:05;;;;;;;1.87;1.77;;;;;;;;;;5079380;28;20469;-76
2021/06/11 08:01:35;;;;;;;2.20;2.00;;;;;;;;;;5075484;28;20555;-76
2021/06/11 08:04:01;;;;;;;2.88;2.05;;;;;;;;;;5081865;28;20930;-76
2021/06/11 08:06:27;;;;;;;1.70;1.37;;;;;;;;;;5079678;28;20192;-75
2021/06/11 08:08:54;;;;;;;3.33;1.80;;;;;;;;;;5083339;28;20404;-78
2021/06/11 08:11:20;;;;;;;1.87;1.73;;;;;;;;;;5082319;28;20430;-79
2021/06/11 08:13:46;;;;;;;2.33;1.73;;;;;;;;;;5077795;28;20462;-79
2021/06/11 08:16:12;;;;;;;2.00;1.77;;;;;;;;;;5077543;28;20465;-80
2021/06/11 08:18:38;;;;;;;3.00;1.80;;;;;;;;;;5080009;28;20921;-81
2021/06/11 08:21:04;;;;;;;2.90;2.40;;;;;;;;;;5082032;28;20425;-80
2021/06/11 08:23:30;;;;;;;3.27;2.30;;;;;;;;;;5083067;28;20393;-78
2021/06/11 08:25:56;;;;;;;2.57;2.30;;;;;;;;;;5079352;28;20453;-80
2021/06/11 08:28:22;;;;;;;2.90;2.20;;;;;;;;;;5078029;28;20442;-79
2021/06/11 08:30:48;;;;;;;3.17;2.87;;;;;;;;;;5079196;28;20423;-80
2021/06/11 08:33:14;;;;;;;5.50;2.60;;;;;;;;;;5080117;28;20437;-81
2021/06/11 08:35:40;;;;;;;4.37;3.00;;;;;;;;;;5080827;28;20422;-80
2021/06/11 08:38:06;;;;;;;2.73;2.53;;;;;;;;;;5082094;28;20520;-81
2021/06/11 08:40:32;;;;;;;3.20;2.70;;;;;;;;;;5083259;28;20427;-80
2021/06/11 08:42:59;;;;;;;2.50;2.30;;;;;;;;;;5083206;28;20438;-81
2021/06/11 08:45:25;;;;;;;5.93;2.40;;;;;;;;;;5081049;28;20432;-79
2021/06/11 08:47:52;;;;;;;3.20;2.70;;;;;;;;;;5101935;28;20462;-80
2021/06/11 08:50:23;;;;;;;3.00;2.40;;;;;;;;;;5081207;28;20417;-81
2021/06/11 08:52:49;;;;;;;4.13;2.47;;;;;;;;;;5083587;28;20472;-79
2021/06/11 08:55:17;;;;;;;2.93;2.63;;;;;;;;;;5081828;28;20421;-78
2021/06/11 08:57:43;;;;;;;2.53;2.33;;;;;;;;;;5082632;28;20436;-79
2021/06/11 09:00:11;;;;;;;2.50;2.00;;;;;;;;;;5083376;28;20905;-79
2021/06/11 09:02:57;;;;;;;3.67;1.87;;;;;;;;;;5084417;28;20397;-80
2021/06/11 09:05:23;;;;;;;1.83;1.50;;;;;;;;;;5084437;28;20497;-80
2021/06/11 09:07:50;;;;;;;2.87;2.00;;;;;;;;;;5080550;28;20435;-80
2021/06/11 09:10:23;;;;;;;2.97;2.00;;;;;;;;;;5082225;28;20591;-81
2021/06/11 09:12:49;;;;;;;3.60;2.50;;;;;;;;;;5082271;28;20458;-80
2021/06/11 09:15:18;;;;;;;3.70;2.57;;;;;;;;;;5082478;28;20894;-79
2021/06/11 09:17:49;;;;;;;2.60;2.13;;;;;;;;;;5085348;28;20389;-80
2021/06/11 09:20:16;;;;;;;2.90;2.53;;;;;;;;;;5081557;28;20442;-78
2021/06/11 09:22:47;;;;;;;3.00;2.40;;;;;;;;;;5084349;28;20413;-79
2021/06/11 09:25:21;;;;;;;2.50;2.30;;;;;;;;;;5082725;28;20417;-80
2021/06/11 09:27:51;;;;;;;2.93;2.73;;;;;;;;;;5082360;28;20440;-80
2021/06/11 09:30:18;;;;;;;2.37;2.20;;;;;;;;;;5083892;28;20446;-81
2021/06/11 09:32:54;;;;;;;2.50;2.30;;;;;;;;;;5084888;28;20455;-79
2021/06/11 09:35:27;;;;;;;2.60;2.00;;;;;;;;;;5082334;28;20428;-78
2021/06/11 09:38:06;;;;;;;2.77;2.57;;;;;;;;;;5082167;28;20488;-81
2021/06/11 09:40:32;;;;;;;2.30;2.10;;;;;;;;;;5081357;28;20441;-80
2021/06/11 09:43:01;;;;;;;3.53;2.20;;;;;;;;;;5082501;28;20477;-80
2021/06/11 09:45:28;;;;;;;3.17;2.23;;;;;;;;;;5095133;28;20474;-79
2021/06/11 09:47:54;;;;;;;2.70;2.50;;;;;;;;;;5083987;28;20437;-78
2021/06/11 09:50:20;;;;;;;2.80;2.07;;;;;;;;;;5078724;28;20413;-81
2021/06/11 09:53:06;;;;;;;2.43;1.87;;;;;;;;;;5080885;28;20466;-76
2021/06/11 09:55:36;;;;;;;3.10;1.90;;;;;;;;;;5081469;28;20442;-78
2021/06/11 09:58:10;;;;;;;1.97;1.83;;;;;;;;;;5081466;28;20421;-80
2021/06/11 10:00:38;;;;;;;3.00;2.27;;;;;;;;;;5080592;28;20990;-83
2021/06/11 10:03:10;;;;;;;2.33;1.70;;;;;;;;;;5082692;28;20440;-81
2021/06/11 10:05:36;;;;;;;1.63;1.53;;;;;;;;;;5083390;28;20385;-80
2021/06/11 10:08:03;;;;;;;2.53;2.10;;;;;;;;;;5083179;28;20527;-81
2021/06/11 10:10:29;;;;;;;2.17;1.97;;;;;;;;;;5081705;28;20446;-82
2021/06/11 10:12:55;;;;;;;2.50;2.17;;;;;;;;;;5083154;28;20472;-80
2021/06/11 10:15:21;;;;;;;3.63;2.07;;;;;;;;;;5082695;28;20428;-80
2021/06/11 10:17:47;;;;;;;1.77;1.67;;;;;;;;;;5084042;28;20880;-81
2021/06/11 10:20:14;;;;;;;1.90;1.70;;;;;;;;;;5077237;28;20417;-82
2021/06/11 10:22:40;;;;;;;2.90;2.07;;;;;;;;;;5081594;28;20468;-80
2021/06/11 10:25:08;;;;;;;2.53;2.40;;;;;;;;;;5080870;28;20465;-79
2021/06/11 10:27:35;;;;;;;2.50;2.30;;;;;;;;;;5082665;28;20442;-80
2021/06/11 10:30:02;;;;;;;2.90;2.70;;;;;;;;;;5074084;28;20558;-79
2021/06/11 10:32:28;;;;;;;2.53;2.33;;;;;;;;;;5082596;28;20428;-80
2021/06/11 10:34:54;;;;;;;3.10;2.90;;;;;;;;;;5079808;28;20772;-77
2021/06/11 10:37:40;;;;;;;3.30;3.00;;;;;;;;;;5079976;28;20781;-78
2021/06/11 10:40:23;;;;;;;3.33;3.03;;;;;;;;;;5086943;28;20404;-81
2021/06/11 10:42:50;;;;;;;5.23;3.60;;;;;;;;;;5082506;28;20539;-80
2021/06/11 10:45:35;;;;;;;3.17;2.57;;;;;;;;;;5082724;28;20477;-84
2021/06/11 10:48:01;;;;;;;3.40;2.33;;;;;;;;;;5096182;28;20509;-80
2021/06/11 10:50:34;;;;;;;2.40;2.30;;;;;;;;;;5092012;28;20420;-82
2021/06/11 10:53:10;;;;;;;2.47;2.20;;;;;;;;;;5080636;28;20456;-80
2021/06/11 10:55:44;;;;;;;2.27;2.07;;;;;;;;;;5078429;28;20511;-79
2021/06/11 10:58:26;;;;;;;2.70;2.47;;;;;;;;;;5023420;28;20454;-82
2021/06/11 11:00:52;;;;;;;2.30;2.20;;;;;;;;;;5016267;28;20435;-83
2021/06/11 11:03:29;;;;;;;2.70;2.50;;;;;;;;;;5023192;28;20494;-81
2021/06/11 11:05:55;;;;;;;4.40;2.30;;;;;;;;;;5038220;28;20432;-82
2021/06/11 11:08:21;;;;;;;2.73;2.50;;;;;;;;;;5021662;28;20437;-80
2021/06/11 11:10:52;;;;;;;2.80;2.60;;;;;;;;;;5020461;28;20452;-80
2021/06/11 11:13:19;;;;;;;2.53;2.33;;;;;;;;;;5021706;28;20826;-79
2021/06/11 11:15:47;;;;;;;2.37;2.17;;;;;;;;;;5020939;28;20447;-80
2021/06/11 11:18:14;;;;;;;2.93;2.50;;;;;;;;;;5022524;28;20506;-79
2021/06/11 11:20:41;;;;;;;2.67;2.37;;;;;;;;;;5039686;28;20430;-83
2021/06/11 11:23:09;;;;;;;2.27;1.83;;;;;;;;;;5036084;28;20444;-80
2021/06/11 11:25:36;;;;;;;3.77;2.97;;;;;;;;;;5021465;28;20551;-81
2021/06/11 11:28:02;;;;;;;5.00;2.80;;;;;;;;;;5023784;28;20433;-80
2021/06/11 11:30:29;;;;;;;2.50;2.30;;;;;;;;;;5036118;28;20442;-80
2021/06/11 11:32:56;;;;;;;2.20;2.00;;;;;;;;;;5025022;28;20442;-80
2021/06/11 11:35:27;;;;;;;2.07;1.77;;;;;;;;;;5055484;28;20433;-82
2021/06/11 11:37:54;;;;;;;2.93;2.13;;;;;;;;;;5078694;28;20524;-86
2021/06/11 11:40:21;;;;;;;2.33;1.90;;;;;;;;;;5079679;28;20476;-83
2021/06/11 11:42:47;;;;;;;1.73;1.33;;;;;;;;;;5079456;28;20441;-78
2021/06/11 11:45:13;;;;;;;1.50;1.40;;;;;;;;;;5082694;28;20432;-77
2021/06/11 11:47:39;;;;;;;1.50;1.40;;;;;;;;;;5091196;28;20471;-80
2021/06/11 11:50:06;;;;;;;2.60;1.80;;;;;;;;;;5079901;28;20453;-80
2021/06/11 11:52:34;;;;;;;2.67;1.13;;;;;;;;;;5079014;28;20454;-77
2021/06/11 11:55:00;;;;;;;1.17;1.07;;;;;;;;;;5079510;28;20430;-83
2021/06/11 11:57:27;;;;;;;2.03;1.23;;;;;;;;;;5078964;28;20786;-81
2021/06/11 11:59:53;;;;;;;1.63;1.53;;;;;;;;;;5083852;28;20433;-78
2021/06/11 12:02:19;;;;;;;3.07;1.50;;;;;;;;;;5078206;28;20471;-82
2021/06/11 12:04:45;;;;;;;1.70;1.37;;;;;;;;;;5081219;28;20443;-81
2021/06/11 12:07:11;;;;;;;2.73;1.60;;;;;;;;;;5080135;28;20467;-82
2021/06/11 12:09:37;;;;;;;1.40;1.30;;;;;;;;;;5080333;28;20437;-78
2021/06/11 12:12:03;;;;;;;1.97;1.77;;;;;;;;;;5083638;28;20452;-81
2021/06/11 12:14:29;;;;;;;2.53;1.57;;;;;;;;;;5085921;28;21025;-78
2021/06/11 12:16:56;;;;;;;3.43;2.13;;;;;;;;;;5083918;28;20731;-82
2021/06/11 12:19:22;;;;;;;1.80;1.70;;;;;;;;;;5083195;28;20433;-79
2021/06/11 12:21:48;;;;;;;2.53;1.60;;;;;;;;;;5081908;28;20441;-84
2021/06/11 12:24:15;;;;;;;1.93;1.77;;;;;;;;;;5084175;28;20430;-81
2021/06/11 12:26:41;;;;;;;1.70;1.60;;;;;;;;;;5085797;28;20461;-79
2021/06/11 12:29:07;;;;;;;4.07;1.70;;;;;;;;;;5081794;28;20430;-79
2021/06/11 12:31:35;;;;;;;1.70;1.60;;;;;;;;;;5083440;28;20445;-81
2021/06/11 12:34:01;;;;;;;1.57;1.47;;;;;;;;;;5084019;28;20716;-83
2021/06/11 12:36:27;;;;;;;1.97;1.83;;;;;;;;;;5082299;28;20447;-83
2021/06/11 12:38:53;;;;;;;1.70;1.60;;;;;;;;;;5087182;28;20430;-86
2021/06/11 12:41:19;;;;;;;1.60;1.50;;;;;;;;;;5082437;28;20438;-82
2021/06/11 12:46:32;;;;;;;2.33;1.77;;;;;;;;;;5077049;28;20465;-84
2021/06/11 12:48:58;;;;;;;1.73;1.63;;;;;;;;;;5083307;28;20430;-83
2021/06/11 12:51:26;;;;;;;1.57;1.47;;;;;;;;;;5083167;28;20453;-83
2021/06/11 12:53:52;;;;;;;1.77;1.67;;;;;;;;;;5086334;28;20565;-80
2021/06/11 12:56:18;;;;;;;2.87;2.07;;;;;;;;;;5082189;28;20937;-87
2021/06/11 12:58:45;;;;;;;1.73;1.63;;;;;;;;;;5082656;28;20487;-85
2021/06/11 13:01:11;;;;;;;1.87;1.77;;;;;;;;;;5081940;28;20522;-88
2021/06/11 13:03:37;;;;;;;2.20;2.10;;;;;;;;;;5081361;28;20446;-82
2021/06/11 13:06:03;;;;;;;2.40;2.30;;;;;;;;;;5084821;28;20442;-82
2021/06/11 13:08:29;;;;;;;1.90;1.80;;;;;;;;;;5083493;28;20422;-80
2021/06/11 13:10:55;;;;;;;1.80;1.70;;;;;;;;;;5082401;28;20439;-80
2021/06/11 13:13:21;;;;;;;1.80;1.70;;;;;;;;;;5083207;28;20533;-80
2021/06/11 13:15:47;;;;;;;2.40;1.50;;;;;;;;;;5079376;28;20542;-82
2021/06/11 13:18:13;;;;;;;3.33;1.40;;;;;;;;;;5083499;28;20414;-81
2021/06/11 13:20:40;;;;;;;1.43;1.10;;;;;;;;;;5094741;28;20426;-80
2021/06/11 13:23:06;;;;;;;2.70;1.93;;;;;;;;;;5081620;28;20430;-82
2021/06/11 13:25:33;;;;;;;1.53;1.43;;;;;;;;;;5080140;28;20502;-81
2021/06/11 13:28:00;;;;;;;1.10;1.03;;;;;;;;;;5081838;28;20438;-80
2021/06/11 13:30:26;;;;;;;1.20;1.10;;;;;;;;;;5077457;28;20426;-83
2021/06/11 13:32:52;;;;;;;1.63;1.27;;;;;;;;;;5085760;28;20466;-83
2021/06/11 13:35:18;;;;;;;1.17;1.07;;;;;;;;;;5081609;28;20438;-79
2021/06/11 13:37:44;;;;;;;1.33;1.23;;;;;;;;;;5081053;28;20434;-80
2021/06/11 13:40:10;;;;;;;2.73;1.37;;;;;;;;;;5081273;28;20437;-79
2021/06/11 13:42:38;;;;;;;1.70;1.03;;;;;;;;;;5080129;28;20817;-81
2021/06/11 13:45:04;;;;;;;1.30;1.20;;;;;;;;;;5083414;28;20423;-83
2021/06/11 13:47:30;;;;;;;1.30;1.20;;;;;;;;;;5084206;28;20481;-82
2021/06/11 13:49:56;;;;;;;1.93;1.33;;;;;;;;;;5081219;28;20440;-78
2021/06/11 13:52:22;;;;;;;1.53;1.00;;;;;;;;;;5081777;28;20452;-78
2021/06/11 13:54:48;;;;;;;1.30;1.10;;;;;;;;;;5081564;28;20442;-79
2021/06/11 13:57:14;;;;;;;1.47;1.20;;;;;;;;;;5083947;28;20423;-77
2021/06/11 13:59:41;;;;;;;1.20;1.10;;;;;;;;;;5093597;28;20421;-86
2021/06/11 14:02:07;;;;;;;1.20;1.10;;;;;;;;;;5080697;28;20443;-83
2021/06/11 14:04:33;;;;;;;1.20;1.10;;;;;;;;;;5081533;28;20503;-80
2021/06/11 14:06:59;;;;;;;1.00;1.00;;;;;;;;;;5080772;28;20463;-81
2021/06/11 14:09:25;;;;;;;0.90;0.90;;;;;;;;;;5082808;28;20451;-82
2021/06/11 14:11:51;;;;;;;1.60;1.00;;;;;;;;;;5085296;28;20405;-79
2021/06/11 14:14:17;;;;;;;1.17;0.90;;;;;;;;;;5080466;28;20435;-77
2021/06/11 14:16:43;;;;;;;1.10;1.00;;;;;;;;;;5081695;28;20487;-78
2021/06/11 14:19:09;;;;;;;1.20;1.10;;;;;;;;;;5081148;28;20890;-79
2021/06/11 14:21:35;;;;;;;0.80;0.80;;;;;;;;;;5081605;28;20462;-78
2021/06/11 14:24:01;;;;;;;3.03;1.03;;;;;;;;;;5082950;28;21057;-80
2021/06/11 14:26:27;;;;;;;1.57;1.00;;;;;;;;;;5084239;28;20489;-80
2021/06/11 14:28:53;;;;;;;1.57;1.20;;;;;;;;;;5081103;28;20424;-79
2021/06/11 14:31:19;;;;;;;1.57;0.93;;;;;;;;;;5079919;28;20436;-80
2021/06/11 14:33:45;;;;;;;1.37;1.27;;;;;;;;;;5077280;28;20494;-78
2021/06/11 14:36:11;;;;;;;3.07;1.10;;;;;;;;;;5082303;28;20900;-80
2021/06/11 14:38:37;;;;;;;1.00;0.90;;;;;;;;;;5081114;28;20423;-80
2021/06/11 14:41:03;;;;;;;1.43;1.10;;;;;;;;;;5081762;28;20861;-78
2021/06/11 14:43:29;;;;;;;1.40;0.97;;;;;;;;;;5080867;28;20453;-79
2021/06/11 14:45:55;;;;;;;1.10;1.00;;;;;;;;;;5081780;28;20444;-77
2021/06/11 14:48:23;;;;;;;2.47;1.40;;;;;;;;;;5079484;28;20440;-78